sensor_id;sensor_type;location;lat;lon;timestamp;temperature;humidity
43991;DHT22;29654;50.784;20.604;2023-03-17T00:00:05;4.60;47.60
43991;DHT22;29654;50.784;20.604;2023-03-17T00:05:22;4.50;47.60
43991;DHT22;29654;50.784;20.604;2023-03-17T00:10:25;4.50;47.90
43991;DHT22;29654;50.784;20.604;2023-03-17T00:15:28;4.40;47.70
43991;DHT22;29654;50.784;20.604;2023-03-17T00:20:32;4.40;47.70
43991;DHT22;29654;50.784;20.604;2023-03-17T00:25:35;4.30;47.70
43991;DHT22;29654;50.784;20.604;2023-03-17T00:30:43;4.30;47.80
43991;DHT22;29654;50.784;20.604;2023-03-17T00:35:48;4.20;47.80
43991;DHT22;29654;50.784;20.604;2023-03-17T00:40:50;4.20;47.90
43991;DHT22;29654;50.784;20.604;2023-03-17T00:45:56;4.10;47.90
43991;DHT22;29654;50.784;20.604;2023-03-17T00:51:00;4.10;47.90
43991;DHT22;29654;50.784;20.604;2023-03-17T00:56:04;4.10;48.00
43991;DHT22;29654;50.784;20.604;2023-03-17T01:01:12;4.10;48.10
43991;DHT22;29654;50.784;20.604;2023-03-17T01:06:17;4.00;48.00
43991;DHT22;29654;50.784;20.604;2023-03-17T01:11:20;4.00;48.10
43991;DHT22;29654;50.784;20.604;2023-03-17T01:16:22;3.90;48.10
43991;DHT22;29654;50.784;20.604;2023-03-17T01:21:26;3.90;48.10
43991;DHT22;29654;50.784;20.604;2023-03-17T01:26:29;3.90;48.20
43991;DHT22;29654;50.784;20.604;2023-03-17T01:31:32;3.90;48.20
43991;DHT22;29654;50.784;20.604;2023-03-17T01:36:36;3.80;48.30
43991;DHT22;29654;50.784;20.604;2023-03-17T01:41:38;3.80;48.30
43991;DHT22;29654;50.784;20.604;2023-03-17T01:46:41;3.80;48.30
43991;DHT22;29654;50.784;20.604;2023-03-17T01:51:51;3.70;48.30
43991;DHT22;29654;50.784;20.604;2023-03-17T01:57:02;3.70;48.50
43991;DHT22;29654;50.784;20.604;2023-03-17T02:02:10;3.70;48.40
43991;DHT22;29654;50.784;20.604;2023-03-17T02:07:17;3.70;48.50
43991;DHT22;29654;50.784;20.604;2023-03-17T02:12:21;3.70;48.50
43991;DHT22;29654;50.784;20.604;2023-03-17T02:17:27;3.60;48.40
43991;DHT22;29654;50.784;20.604;2023-03-17T02:22:31;3.60;48.40
43991;DHT22;29654;50.784;20.604;2023-03-17T02:27:36;3.60;48.40
43991;DHT22;29654;50.784;20.604;2023-03-17T02:32:41;3.60;48.40
43991;DHT22;29654;50.784;20.604;2023-03-17T02:37:45;3.50;48.40
43991;DHT22;29654;50.784;20.604;2023-03-17T02:42:48;3.50;48.60
43991;DHT22;29654;50.784;20.604;2023-03-17T02:47:51;3.50;48.50
43991;DHT22;29654;50.784;20.604;2023-03-17T02:52:55;3.40;48.50
43991;DHT22;29654;50.784;20.604;2023-03-17T02:57:58;3.40;48.50
43991;DHT22;29654;50.784;20.604;2023-03-17T03:03:02;3.30;48.40
43991;DHT22;29654;50.784;20.604;2023-03-17T03:08:06;3.30;48.50
43991;DHT22;29654;50.784;20.604;2023-03-17T03:13:08;3.30;48.60
43991;DHT22;29654;50.784;20.604;2023-03-17T03:18:12;3.30;48.70
43991;DHT22;29654;50.784;20.604;2023-03-17T03:23:16;3.20;48.70
43991;DHT22;29654;50.784;20.604;2023-03-17T03:28:18;3.20;48.80
43991;DHT22;29654;50.784;20.604;2023-03-17T03:33:21;3.20;48.90
43991;DHT22;29654;50.784;20.604;2023-03-17T03:38:25;3.30;49.00
43991;DHT22;29654;50.784;20.604;2023-03-17T03:43:28;3.30;49.10
43991;DHT22;29654;50.784;20.604;2023-03-17T03:48:30;3.30;49.10
43991;DHT22;29654;50.784;20.604;2023-03-17T03:53:34;3.30;49.20
43991;DHT22;29654;50.784;20.604;2023-03-17T03:58:37;3.30;49.20
43991;DHT22;29654;50.784;20.604;2023-03-17T04:03:39;3.30;49.30
43991;DHT22;29654;50.784;20.604;2023-03-17T04:08:43;3.30;49.40
43991;DHT22;29654;50.784;20.604;2023-03-17T04:13:46;3.30;49.40
43991;DHT22;29654;50.784;20.604;2023-03-17T04:18:48;3.40;49.50
43991;DHT22;29654;50.784;20.604;2023-03-17T04:23:52;3.40;49.50
43991;DHT22;29654;50.784;20.604;2023-03-17T04:28:55;3.40;49.60
43991;DHT22;29654;50.784;20.604;2023-03-17T04:33:58;3.40;49.60
43991;DHT22;29654;50.784;20.604;2023-03-17T04:39:03;3.50;49.60
43991;DHT22;29654;50.784;20.604;2023-03-17T04:44:06;3.50;49.60
43991;DHT22;29654;50.784;20.604;2023-03-17T04:49:09;3.50;49.60
43991;DHT22;29654;50.784;20.604;2023-03-17T04:54:13;3.60;49.60
43991;DHT22;29654;50.784;20.604;2023-03-17T04:59:16;3.60;49.60
43991;DHT22;29654;50.784;20.604;2023-03-17T05:04:18;3.60;49.60
43991;DHT22;29654;50.784;20.604;2023-03-17T05:09:23;3.60;49.60
43991;DHT22;29654;50.784;20.604;2023-03-17T05:14:26;3.70;49.60
43991;DHT22;29654;50.784;20.604;2023-03-17T05:19:29;3.70;49.70
43991;DHT22;29654;50.784;20.604;2023-03-17T05:24:33;3.80;49.80
43991;DHT22;29654;50.784;20.604;2023-03-17T05:29:35;3.80;50.00
43991;DHT22;29654;50.784;20.604;2023-03-17T05:34:38;4.00;50.10
43991;DHT22;29654;50.784;20.604;2023-03-17T05:39:42;4.10;50.20
43991;DHT22;29654;50.784;20.604;2023-03-17T05:44:45;4.20;50.30
43991;DHT22;29654;50.784;20.604;2023-03-17T05:49:47;4.40;50.40
43991;DHT22;29654;50.784;20.604;2023-03-17T05:54:52;4.50;50.40
43991;DHT22;29654;50.784;20.604;2023-03-17T05:59:54;4.70;50.50
43991;DHT22;29654;50.784;20.604;2023-03-17T06:04:57;4.80;50.50
43991;DHT22;29654;50.784;20.604;2023-03-17T06:10:01;5.00;50.50
43991;DHT22;29654;50.784;20.604;2023-03-17T06:15:06;5.20;50.60
43991;DHT22;29654;50.784;20.604;2023-03-17T06:20:11;5.30;50.60
43991;DHT22;29654;50.784;20.604;2023-03-17T06:25:15;5.50;50.60
43991;DHT22;29654;50.784;20.604;2023-03-17T06:30:19;5.60;50.70
43991;DHT22;29654;50.784;20.604;2023-03-17T06:35:22;5.80;50.70
43991;DHT22;29654;50.784;20.604;2023-03-17T06:40:28;5.90;50.60
43991;DHT22;29654;50.784;20.604;2023-03-17T06:45:30;6.10;50.80
43991;DHT22;29654;50.784;20.604;2023-03-17T06:50:33;6.30;50.70
43991;DHT22;29654;50.784;20.604;2023-03-17T06:55:37;6.40;50.70
43991;DHT22;29654;50.784;20.604;2023-03-17T07:00:40;6.60;50.70
43991;DHT22;29654;50.784;20.604;2023-03-17T07:05:42;6.80;50.70
43991;DHT22;29654;50.784;20.604;2023-03-17T07:10:46;6.90;50.70
43991;DHT22;29654;50.784;20.604;2023-03-17T07:15:50;7.20;50.70
43991;DHT22;29654;50.784;20.604;2023-03-17T07:20:52;7.30;50.50
43991;DHT22;29654;50.784;20.604;2023-03-17T07:25:56;7.50;50.60
43991;DHT22;29654;50.784;20.604;2023-03-17T07:30:59;7.70;50.60
43991;DHT22;29654;50.784;20.604;2023-03-17T07:36:02;7.90;50.50
43991;DHT22;29654;50.784;20.604;2023-03-17T07:41:08;8.10;50.50
43991;DHT22;29654;50.784;20.604;2023-03-17T07:46:11;8.30;50.50
43991;DHT22;29654;50.784;20.604;2023-03-17T07:51:15;8.50;50.30
43991;DHT22;29654;50.784;20.604;2023-03-17T07:56:20;8.70;50.30
43991;DHT22;29654;50.784;20.604;2023-03-17T08:01:23;9.00;50.20
43991;DHT22;29654;50.784;20.604;2023-03-17T08:06:26;9.30;49.80
43991;DHT22;29654;50.784;20.604;2023-03-17T08:11:31;9.60;50.30
43991;DHT22;29654;50.784;20.604;2023-03-17T08:16:33;9.90;49.30
43991;DHT22;29654;50.784;20.604;2023-03-17T08:21:36;10.20;49.00
43991;DHT22;29654;50.784;20.604;2023-03-17T08:26:40;10.40;48.70
43991;DHT22;29654;50.784;20.604;2023-03-17T08:31:43;10.70;48.40
43991;DHT22;29654;50.784;20.604;2023-03-17T08:36:46;11.00;48.30
43991;DHT22;29654;50.784;20.604;2023-03-17T08:41:50;11.30;47.80
43991;DHT22;29654;50.784;20.604;2023-03-17T08:46:52;11.50;47.20
43991;DHT22;29654;50.784;20.604;2023-03-17T08:51:56;11.70;46.90
43991;DHT22;29654;50.784;20.604;2023-03-17T08:57:00;11.80;46.60
43991;DHT22;29654;50.784;20.604;2023-03-17T09:02:04;12.00;46.30
43991;DHT22;29654;50.784;20.604;2023-03-17T09:07:07;12.10;46.00
43991;DHT22;29654;50.784;20.604;2023-03-17T09:12:11;12.30;45.80
43991;DHT22;29654;50.784;20.604;2023-03-17T09:17:14;12.50;45.20
43991;DHT22;29654;50.784;20.604;2023-03-17T09:22:17;12.60;45.20
43991;DHT22;29654;50.784;20.604;2023-03-17T09:27:21;12.70;44.80
43991;DHT22;29654;50.784;20.604;2023-03-17T09:32:23;12.80;44.60
43991;DHT22;29654;50.784;20.604;2023-03-17T09:37:26;12.90;44.70
43991;DHT22;29654;50.784;20.604;2023-03-17T09:42:40;13.10;44.20
43991;DHT22;29654;50.784;20.604;2023-03-17T09:47:55;13.10;42.90
43991;DHT22;29654;50.784;20.604;2023-03-17T09:53:17;13.00;42.90
43991;DHT22;29654;50.784;20.604;2023-03-17T09:58:28;13.00;43.30
43991;DHT22;29654;50.784;20.604;2023-03-17T10:03:32;13.00;42.70
43991;DHT22;29654;50.784;20.604;2023-03-17T10:08:42;13.00;42.40
43991;DHT22;29654;50.784;20.604;2023-03-17T10:13:54;13.00;42.60
43991;DHT22;29654;50.784;20.604;2023-03-17T10:19:03;13.00;42.30
43991;DHT22;29654;50.784;20.604;2023-03-17T10:24:10;13.10;42.80
43991;DHT22;29654;50.784;20.604;2023-03-17T10:29:16;13.20;42.60
43991;DHT22;29654;50.784;20.604;2023-03-17T10:34:24;13.20;41.80
43991;DHT22;29654;50.784;20.604;2023-03-17T10:39:28;13.20;41.70
43991;DHT22;29654;50.784;20.604;2023-03-17T10:44:42;13.30;41.80
43991;DHT22;29654;50.784;20.604;2023-03-17T10:49:46;13.40;41.40
43991;DHT22;29654;50.784;20.604;2023-03-17T10:54:49;13.50;41.70
43991;DHT22;29654;50.784;20.604;2023-03-17T10:59:55;13.70;41.60
43991;DHT22;29654;50.784;20.604;2023-03-17T11:04:59;13.80;40.90
43991;DHT22;29654;50.784;20.604;2023-03-17T11:10:16;13.90;40.60
43991;DHT22;29654;50.784;20.604;2023-03-17T11:15:21;13.90;39.60
43991;DHT22;29654;50.784;20.604;2023-03-17T11:20:40;14.00;41.00
43991;DHT22;29654;50.784;20.604;2023-03-17T11:25:56;14.20;40.10
43991;DHT22;29654;50.784;20.604;2023-03-17T11:31:09;14.30;40.50
43991;DHT22;29654;50.784;20.604;2023-03-17T11:36:35;14.40;40.30
43991;DHT22;29654;50.784;20.604;2023-03-17T11:42:04;14.50;39.60
43991;DHT22;29654;50.784;20.604;2023-03-17T11:47:20;14.50;38.70
43991;DHT22;29654;50.784;20.604;2023-03-17T11:52:33;14.50;39.10
43991;DHT22;29654;50.784;20.604;2023-03-17T11:57:45;14.50;39.80
43991;DHT22;29654;50.784;20.604;2023-03-17T12:02:53;14.50;39.50
43991;DHT22;29654;50.784;20.604;2023-03-17T12:08:02;14.50;39.30
43991;DHT22;29654;50.784;20.604;2023-03-17T12:13:11;14.50;39.60
43991;DHT22;29654;50.784;20.604;2023-03-17T12:18:22;14.60;39.40
43991;DHT22;29654;50.784;20.604;2023-03-17T12:23:33;14.60;38.70
43991;DHT22;29654;50.784;20.604;2023-03-17T12:28:43;14.70;39.00
43991;DHT22;29654;50.784;20.604;2023-03-17T12:33:55;14.80;38.80
43991;DHT22;29654;50.784;20.604;2023-03-17T12:39:04;14.90;38.60
43991;DHT22;29654;50.784;20.604;2023-03-17T12:44:16;14.90;38.60
43991;DHT22;29654;50.784;20.604;2023-03-17T12:49:53;15.00;38.30
43991;DHT22;29654;50.784;20.604;2023-03-17T12:55:23;15.10;37.20
43991;DHT22;29654;50.784;20.604;2023-03-17T13:00:28;15.10;38.30
43991;DHT22;29654;50.784;20.604;2023-03-17T13:05:34;15.30;38.70
43991;DHT22;29654;50.784;20.604;2023-03-17T13:10:40;15.40;38.50
43991;DHT22;29654;50.784;20.604;2023-03-17T13:15:50;15.50;37.80
43991;DHT22;29654;50.784;20.604;2023-03-17T13:21:11;15.60;37.30
43991;DHT22;29654;50.784;20.604;2023-03-17T13:26:18;15.60;37.20
43991;DHT22;29654;50.784;20.604;2023-03-17T13:31:32;15.70;37.60
43991;DHT22;29654;50.784;20.604;2023-03-17T13:36:44;15.70;36.30
43991;DHT22;29654;50.784;20.604;2023-03-17T13:42:07;15.70;37.20
43991;DHT22;29654;50.784;20.604;2023-03-17T13:47:26;15.70;36.20
43991;DHT22;29654;50.784;20.604;2023-03-17T13:52:39;16.00;32.00
43991;DHT22;29654;50.784;20.604;2023-03-17T13:57:53;15.60;34.60
43991;DHT22;29654;50.784;20.604;2023-03-17T14:03:04;15.40;35.20
43991;DHT22;29654;50.784;20.604;2023-03-17T14:08:15;15.30;35.50
43991;DHT22;29654;50.784;20.604;2023-03-17T14:13:24;15.20;35.70
43991;DHT22;29654;50.784;20.604;2023-03-17T14:18:31;15.20;36.30
43991;DHT22;29654;50.784;20.604;2023-03-17T14:23:36;15.30;36.30
43991;DHT22;29654;50.784;20.604;2023-03-17T14:28:38;15.40;36.30
43991;DHT22;29654;50.784;20.604;2023-03-17T14:33:41;15.50;36.30
43991;DHT22;29654;50.784;20.604;2023-03-17T14:38:48;15.50;36.10
43991;DHT22;29654;50.784;20.604;2023-03-17T14:43:55;15.60;35.90
43991;DHT22;29654;50.784;20.604;2023-03-17T14:49:00;15.60;35.60
43991;DHT22;29654;50.784;20.604;2023-03-17T14:54:12;15.60;35.90
43991;DHT22;29654;50.784;20.604;2023-03-17T14:59:19;15.60;34.50
43991;DHT22;29654;50.784;20.604;2023-03-17T15:04:26;15.50;35.00
43991;DHT22;29654;50.784;20.604;2023-03-17T15:09:34;15.40;35.10
43991;DHT22;29654;50.784;20.604;2023-03-17T15:14:39;15.30;34.90
43991;DHT22;29654;50.784;20.604;2023-03-17T15:19:44;15.20;35.30
43991;DHT22;29654;50.784;20.604;2023-03-17T15:24:58;15.10;35.40
43991;DHT22;29654;50.784;20.604;2023-03-17T15:30:02;15.10;34.40
43991;DHT22;29654;50.784;20.604;2023-03-17T15:35:07;15.10;35.40
43991;DHT22;29654;50.784;20.604;2023-03-17T15:40:15;15.10;35.10
43991;DHT22;29654;50.784;20.604;2023-03-17T15:45:17;15.00;35.10
43991;DHT22;29654;50.784;20.604;2023-03-17T15:50:23;14.90;35.60
43991;DHT22;29654;50.784;20.604;2023-03-17T15:55:30;14.80;35.60
43991;DHT22;29654;50.784;20.604;2023-03-17T16:00:33;14.70;35.90
43991;DHT22;29654;50.784;20.604;2023-03-17T16:05:36;14.70;36.70
43991;DHT22;29654;50.784;20.604;2023-03-17T16:10:40;14.60;36.00
43991;DHT22;29654;50.784;20.604;2023-03-17T16:15:46;14.50;35.60
43991;DHT22;29654;50.784;20.604;2023-03-17T16:20:53;14.40;35.90
43991;DHT22;29654;50.784;20.604;2023-03-17T16:25:57;14.20;36.00
43991;DHT22;29654;50.784;20.604;2023-03-17T16:31:01;14.10;36.00
43991;DHT22;29654;50.784;20.604;2023-03-17T16:36:04;14.00;36.20
43991;DHT22;29654;50.784;20.604;2023-03-17T16:41:14;13.80;36.20
43991;DHT22;29654;50.784;20.604;2023-03-17T16:46:20;13.70;36.00
43991;DHT22;29654;50.784;20.604;2023-03-17T16:51:23;13.60;36.40
43991;DHT22;29654;50.784;20.604;2023-03-17T16:56:36;13.40;36.30
43991;DHT22;29654;50.784;20.604;2023-03-17T17:01:41;13.30;36.10
43991;DHT22;29654;50.784;20.604;2023-03-17T17:06:43;13.20;36.60
43991;DHT22;29654;50.784;20.604;2023-03-17T17:11:47;13.10;36.60
43991;DHT22;29654;50.784;20.604;2023-03-17T17:16:49;12.90;36.50
43991;DHT22;29654;50.784;20.604;2023-03-17T17:21:52;12.80;36.70
43991;DHT22;29654;50.784;20.604;2023-03-17T17:26:56;12.70;36.80
43991;DHT22;29654;50.784;20.604;2023-03-17T17:31:58;13.10;35.20
43991;DHT22;29654;50.784;20.604;2023-03-17T17:37:01;12.80;36.20
43991;DHT22;29654;50.784;20.604;2023-03-17T17:42:07;12.70;36.40
43991;DHT22;29654;50.784;20.604;2023-03-17T17:47:11;12.60;37.10
43991;DHT22;29654;50.784;20.604;2023-03-17T17:52:13;12.40;36.50
43991;DHT22;29654;50.784;20.604;2023-03-17T17:57:18;12.30;36.70
43991;DHT22;29654;50.784;20.604;2023-03-17T18:02:21;12.10;36.80
43991;DHT22;29654;50.784;20.604;2023-03-17T18:07:24;12.00;37.10
43991;DHT22;29654;50.784;20.604;2023-03-17T18:12:27;11.80;37.30
43991;DHT22;29654;50.784;20.604;2023-03-17T18:17:30;11.70;37.50
43991;DHT22;29654;50.784;20.604;2023-03-17T18:22:33;11.50;37.60
43991;DHT22;29654;50.784;20.604;2023-03-17T18:27:37;11.40;37.90
43991;DHT22;29654;50.784;20.604;2023-03-17T18:32:41;11.30;38.10
43991;DHT22;29654;50.784;20.604;2023-03-17T18:37:45;11.10;38.30
43991;DHT22;29654;50.784;20.604;2023-03-17T18:42:49;11.10;38.60
43991;DHT22;29654;50.784;20.604;2023-03-17T18:47:52;11.00;38.80
43991;DHT22;29654;50.784;20.604;2023-03-17T18:52:54;10.90;39.00
43991;DHT22;29654;50.784;20.604;2023-03-17T18:57:58;10.80;39.10
43991;DHT22;29654;50.784;20.604;2023-03-17T19:03:01;10.70;39.30
43991;DHT22;29654;50.784;20.604;2023-03-17T19:08:03;10.70;40.10
43991;DHT22;29654;50.784;20.604;2023-03-17T19:13:07;10.60;39.50
43991;DHT22;29654;50.784;20.604;2023-03-17T19:18:10;10.50;39.60
43991;DHT22;29654;50.784;20.604;2023-03-17T19:23:12;10.50;39.70
43991;DHT22;29654;50.784;20.604;2023-03-17T19:28:17;10.40;39.80
43991;DHT22;29654;50.784;20.604;2023-03-17T19:33:19;10.40;40.00
43991;DHT22;29654;50.784;20.604;2023-03-17T19:38:23;10.30;40.10
43991;DHT22;29654;50.784;20.604;2023-03-17T19:43:27;10.30;40.20
43991;DHT22;29654;50.784;20.604;2023-03-17T19:48:29;10.20;40.20
43991;DHT22;29654;50.784;20.604;2023-03-17T19:53:33;10.20;40.30
43991;DHT22;29654;50.784;20.604;2023-03-17T19:58:38;10.10;40.40
43991;DHT22;29654;50.784;20.604;2023-03-17T20:03:41;10.10;40.60
43991;DHT22;29654;50.784;20.604;2023-03-17T20:08:43;10.10;40.60
43991;DHT22;29654;50.784;20.604;2023-03-17T20:13:47;10.10;40.70
43991;DHT22;29654;50.784;20.604;2023-03-17T20:18:50;10.10;40.80
43991;DHT22;29654;50.784;20.604;2023-03-17T20:23:52;10.00;40.80
43991;DHT22;29654;50.784;20.604;2023-03-17T20:28:57;10.00;40.80
43991;DHT22;29654;50.784;20.604;2023-03-17T20:34:00;9.90;40.90
43991;DHT22;29654;50.784;20.604;2023-03-17T20:39:02;9.90;40.90
43991;DHT22;29654;50.784;20.604;2023-03-17T20:44:07;9.90;40.90
43991;DHT22;29654;50.784;20.604;2023-03-17T20:49:11;9.90;41.10
43991;DHT22;29654;50.784;20.604;2023-03-17T20:54:16;9.90;41.10
43991;DHT22;29654;50.784;20.604;2023-03-17T20:59:20;9.80;41.20
43991;DHT22;29654;50.784;20.604;2023-03-17T21:04:24;9.80;41.30
43991;DHT22;29654;50.784;20.604;2023-03-17T21:09:26;9.80;41.20
43991;DHT22;29654;50.784;20.604;2023-03-17T21:14:31;9.80;41.30
43991;DHT22;29654;50.784;20.604;2023-03-17T21:19:33;9.80;41.30
43991;DHT22;29654;50.784;20.604;2023-03-17T21:24:37;9.70;41.30
43991;DHT22;29654;50.784;20.604;2023-03-17T21:29:42;9.70;41.30
43991;DHT22;29654;50.784;20.604;2023-03-17T21:34:44;9.70;41.40
43991;DHT22;29654;50.784;20.604;2023-03-17T21:39:47;9.60;41.40
43991;DHT22;29654;50.784;20.604;2023-03-17T21:44:51;9.60;41.40
43991;DHT22;29654;50.784;20.604;2023-03-17T21:49:54;9.60;41.50
43991;DHT22;29654;50.784;20.604;2023-03-17T21:54:57;9.60;41.50
43991;DHT22;29654;50.784;20.604;2023-03-17T22:00:03;9.50;41.50
43991;DHT22;29654;50.784;20.604;2023-03-17T22:05:13;9.50;41.50
43991;DHT22;29654;50.784;20.604;2023-03-17T22:10:16;9.40;41.50
43991;DHT22;29654;50.784;20.604;2023-03-17T22:15:20;9.40;41.50
43991;DHT22;29654;50.784;20.604;2023-03-17T22:20:22;9.40;41.50
43991;DHT22;29654;50.784;20.604;2023-03-17T22:25:25;9.40;41.50
43991;DHT22;29654;50.784;20.604;2023-03-17T22:30:29;9.30;41.50
43991;DHT22;29654;50.784;20.604;2023-03-17T22:35:32;9.30;41.50
43991;DHT22;29654;50.784;20.604;2023-03-17T22:40:35;9.20;41.50
43991;DHT22;29654;50.784;20.604;2023-03-17T22:45:39;9.20;41.60
43991;DHT22;29654;50.784;20.604;2023-03-17T22:50:41;9.20;41.60
43991;DHT22;29654;50.784;20.604;2023-03-17T22:55:44;9.20;41.70
43991;DHT22;29654;50.784;20.604;2023-03-17T23:00:48;9.10;41.70
43991;DHT22;29654;50.784;20.604;2023-03-17T23:05:54;9.10;42.40
43991;DHT22;29654;50.784;20.604;2023-03-17T23:11:00;9.00;41.80
43991;DHT22;29654;50.784;20.604;2023-03-17T23:16:06;9.00;41.90
43991;DHT22;29654;50.784;20.604;2023-03-17T23:21:10;8.90;41.90
43991;DHT22;29654;50.784;20.604;2023-03-17T23:26:20;8.90;42.00
43991;DHT22;29654;50.784;20.604;2023-03-17T23:31:24;8.80;42.00
43991;DHT22;29654;50.784;20.604;2023-03-17T23:36:27;8.80;42.10
43991;DHT22;29654;50.784;20.604;2023-03-17T23:41:29;8.70;42.20
43991;DHT22;29654;50.784;20.604;2023-03-17T23:46:33;8.70;42.30
43991;DHT22;29654;50.784;20.604;2023-03-17T23:51:36;8.60;42.30
43991;DHT22;29654;50.784;20.604;2023-03-17T23:56:39;8.60;42.30
